createdAt,value
2018-12-31T00:05:25.229Z,6.07
2018-12-31T00:08:14.064Z,6.67
2018-12-31T00:11:02.972Z,6.17
2018-12-31T00:13:51.886Z,6.57
2018-12-31T00:16:33.588Z,6.73
2018-12-31T00:19:22.443Z,7.10
2018-12-31T00:22:11.282Z,6.67
2018-12-31T00:25:00.230Z,7.43
2018-12-31T00:27:49.137Z,6.60
2018-12-31T00:30:37.994Z,7.73
2018-12-31T00:33:26.867Z,7.30
2018-12-31T00:36:15.704Z,6.73
2018-12-31T00:39:25.446Z,7.70
2018-12-31T00:42:14.291Z,6.00
2018-12-31T00:45:03.178Z,5.83
2018-12-31T00:47:52.042Z,6.83
2018-12-31T00:50:40.899Z,6.67
2018-12-31T00:53:29.750Z,6.70
2018-12-31T00:56:18.596Z,7.33
2018-12-31T00:59:00.390Z,7.17
2018-12-31T01:01:49.216Z,7.13
2018-12-31T01:04:38.050Z,6.57
2018-12-31T01:07:26.898Z,6.83
2018-12-31T01:10:15.752Z,6.90
2018-12-31T01:13:04.560Z,5.80
2018-12-31T01:15:53.766Z,6.03
2018-12-31T01:18:42.598Z,5.27
2018-12-31T01:21:31.438Z,5.33
2018-12-31T01:24:20.335Z,6.17
2018-12-31T01:27:09.190Z,5.53
2018-12-31T01:29:58.040Z,4.60
2018-12-31T01:32:46.875Z,5.47
2018-12-31T01:35:35.727Z,5.10
2018-12-31T01:38:24.519Z,4.50
2018-12-31T01:41:13.368Z,4.57
2018-12-31T01:44:02.179Z,4.43
2018-12-31T01:46:51.018Z,4.37
2018-12-31T01:49:39.874Z,4.33
2018-12-31T01:52:28.698Z,3.70
2018-12-31T01:55:17.529Z,4.37
2018-12-31T01:58:06.371Z,3.87
2018-12-31T02:00:55.196Z,4.20
2018-12-31T02:03:44.042Z,4.10
2018-12-31T02:06:32.851Z,3.63
2018-12-31T02:09:21.783Z,3.27
2018-12-31T02:12:03.242Z,4.20
2018-12-31T02:14:52.062Z,3.73
2018-12-31T02:17:40.918Z,4.20
2018-12-31T02:20:29.754Z,4.87
2018-12-31T02:23:18.588Z,4.80
2018-12-31T02:26:07.512Z,4.60
2018-12-31T02:28:56.336Z,4.53
2018-12-31T02:31:45.172Z,5.23
2018-12-31T02:34:34.018Z,4.87
2018-12-31T02:37:22.825Z,5.07
2018-12-31T02:40:11.685Z,4.53
2018-12-31T02:43:00.538Z,5.57
2018-12-31T02:45:42.633Z,5.80
2018-12-31T02:48:31.490Z,5.30
2018-12-31T02:51:20.338Z,5.50
2018-12-31T02:54:09.168Z,4.23
2018-12-31T02:56:57.997Z,5.23
2018-12-31T02:59:46.845Z,4.93
2018-12-31T03:02:35.688Z,4.93
2018-12-31T03:05:24.500Z,4.47
2018-12-31T03:08:06.084Z,4.40
2018-12-31T03:10:54.918Z,4.70
2018-12-31T03:13:43.740Z,4.53
2018-12-31T03:16:32.585Z,4.53
2018-12-31T03:19:21.451Z,4.93
2018-12-31T03:22:10.247Z,4.53
2018-12-31T03:24:59.100Z,4.57
2018-12-31T03:27:47.949Z,4.57
2018-12-31T03:30:36.758Z,4.97
2018-12-31T03:33:25.615Z,4.97
2018-12-31T03:36:14.444Z,4.67
2018-12-31T03:38:55.887Z,5.27
2018-12-31T03:41:44.794Z,4.67
2018-12-31T03:44:33.601Z,4.77
2018-12-31T03:47:22.533Z,4.67
2018-12-31T03:50:11.347Z,4.83
2018-12-31T03:53:00.179Z,4.93
2018-12-31T03:55:49.025Z,5.23
2018-12-31T03:58:37.858Z,5.00
2018-12-31T04:01:26.660Z,4.40
2018-12-31T04:04:15.511Z,4.97
2018-12-31T04:06:44.977Z,4.40
2018-12-31T04:09:35.037Z,5.23
2018-12-31T04:12:24.482Z,5.40
2018-12-31T04:15:13.315Z,4.70
2018-12-31T04:17:53.135Z,5.13
2018-12-31T04:20:41.975Z,5.40
2018-12-31T04:23:30.803Z,5.40
2018-12-31T04:26:19.641Z,5.73
2018-12-31T04:29:08.456Z,5.07
2018-12-31T04:31:57.321Z,5.20
2018-12-31T04:34:46.115Z,5.20
2018-12-31T04:37:34.966Z,5.50
2018-12-31T04:40:23.804Z,4.80
2018-12-31T04:43:12.606Z,5.60
2018-12-31T04:46:01.456Z,5.30
2018-12-31T04:48:43.259Z,5.17
2018-12-31T04:51:32.104Z,4.77
2018-12-31T04:54:20.967Z,5.33
2018-12-31T04:57:09.781Z,3.87
2018-12-31T04:59:58.627Z,4.43
2018-12-31T05:02:47.544Z,6.03
2018-12-31T05:05:36.354Z,4.60
2018-12-31T05:08:25.201Z,4.50
2018-12-31T05:11:14.046Z,4.70
2018-12-31T05:14:02.892Z,4.63
2018-12-31T05:16:51.781Z,5.17
2018-12-31T05:19:40.602Z,5.60
2018-12-31T05:22:29.465Z,4.57
2018-12-31T05:25:18.277Z,5.57
2018-12-31T05:28:07.100Z,5.30
2018-12-31T05:30:48.825Z,6.17
2018-12-31T05:33:37.625Z,5.53
2018-12-31T05:36:26.536Z,6.20
2018-12-31T05:39:15.376Z,6.40
2018-12-31T05:42:04.224Z,6.13
2018-12-31T05:44:53.044Z,5.53
2018-12-31T05:47:41.879Z,6.17
2018-12-31T05:50:30.718Z,5.93
2018-12-31T05:53:19.551Z,7.03
2018-12-31T05:56:08.405Z,8.23
2018-12-31T05:58:57.244Z,5.90
2018-12-31T06:01:46.054Z,7.37
2018-12-31T06:04:34.905Z,7.17
2018-12-31T06:07:23.720Z,8.07
2018-12-31T06:10:12.577Z,7.23
2018-12-31T06:13:01.419Z,8.87
2018-12-31T06:15:50.226Z,7.73
2018-12-31T06:18:39.072Z,7.73
2018-12-31T06:21:18.858Z,8.73
2018-12-31T06:24:07.684Z,7.80
2018-12-31T06:26:56.509Z,9.00
2018-12-31T06:29:45.354Z,7.90
2018-12-31T06:32:34.186Z,8.73
2018-12-31T06:35:23.043Z,8.27
2018-12-31T06:38:11.899Z,8.33
2018-12-31T06:41:00.710Z,7.87
2018-12-31T06:43:49.561Z,8.53
2018-12-31T06:46:38.395Z,9.23
2018-12-31T06:49:27.245Z,8.93
2018-12-31T06:52:16.091Z,8.47
2018-12-31T06:55:05.436Z,8.77
2018-12-31T06:57:54.274Z,7.87
2018-12-31T07:00:43.112Z,9.27
2018-12-31T07:03:44.038Z,8.47
2018-12-31T07:06:22.566Z,7.53
2018-12-31T07:09:11.417Z,8.63
2018-12-31T07:11:53.484Z,10.07
2018-12-31T07:14:42.331Z,10.40
2018-12-31T07:17:31.172Z,9.57
2018-12-31T07:20:20.019Z,10.83
2018-12-31T07:23:08.872Z,8.10
2018-12-31T07:25:57.812Z,10.70
2018-12-31T07:28:46.633Z,9.47
2018-12-31T07:31:35.445Z,9.87
2018-12-31T07:34:24.287Z,9.40
2018-12-31T07:37:13.119Z,10.40
2018-12-31T07:40:01.977Z,10.40
2018-12-31T07:42:50.820Z,9.07
2018-12-31T07:45:39.672Z,8.90
2018-12-31T07:48:28.482Z,10.07
2018-12-31T07:51:10.586Z,10.37
2018-12-31T07:53:59.468Z,9.23
2018-12-31T07:56:48.337Z,9.50
2018-12-31T07:59:37.240Z,9.13
2018-12-31T08:02:26.107Z,9.03
2018-12-31T08:05:14.906Z,9.00
2018-12-31T08:08:03.773Z,7.03
2018-12-31T08:10:52.578Z,10.23
2018-12-31T08:13:41.428Z,8.80
2018-12-31T08:16:30.278Z,9.60
2018-12-31T08:19:19.096Z,9.10
2018-12-31T08:22:07.951Z,10.73
2018-12-31T08:24:56.754Z,8.00
2018-12-31T08:27:45.611Z,8.13
2018-12-31T08:30:34.471Z,8.57
2018-12-31T08:33:23.293Z,8.73
2018-12-31T08:36:12.141Z,10.20
2018-12-31T08:39:00.988Z,9.30
2018-12-31T08:41:40.855Z,11.57
2018-12-31T08:44:29.714Z,11.50
2018-12-31T08:47:18.530Z,10.07
2018-12-31T08:50:02.826Z,10.63
2018-12-31T08:52:50.854Z,11.57
2018-12-31T08:55:39.725Z,9.70
2018-12-31T08:58:28.576Z,10.60
2018-12-31T09:01:17.405Z,10.50
2018-12-31T09:04:06.254Z,11.37
2018-12-31T09:06:55.092Z,10.80
2018-12-31T09:09:43.914Z,11.17
2018-12-31T09:12:32.763Z,11.43
2018-12-31T09:15:21.689Z,11.23
2018-12-31T09:18:10.504Z,11.77
2018-12-31T09:20:59.351Z,12.33
2018-12-31T09:23:48.246Z,11.57
2018-12-31T09:26:37.099Z,12.83
2018-12-31T09:29:25.966Z,11.60
2018-12-31T09:31:55.454Z,11.13
2018-12-31T09:34:44.306Z,10.23
2018-12-31T09:37:33.154Z,10.37
2018-12-31T09:40:14.971Z,10.93
2018-12-31T09:42:44.483Z,11.97
2018-12-31T09:45:33.332Z,12.17
2018-12-31T09:48:22.157Z,10.00
2018-12-31T09:51:11.013Z,10.97
2018-12-31T09:53:59.816Z,11.30
2018-12-31T09:56:29.331Z,11.80
2018-12-31T09:59:18.147Z,11.33
2018-12-31T10:02:06.985Z,10.60
2018-12-31T10:04:55.806Z,10.07
2018-12-31T10:07:25.338Z,11.70
2018-12-31T10:10:14.152Z,11.37
2018-12-31T10:13:03.010Z,11.73
2018-12-31T10:15:51.829Z,11.47
2018-12-31T10:18:40.685Z,11.50
2018-12-31T10:21:29.513Z,11.60
2018-12-31T10:24:18.377Z,11.43
2018-12-31T10:27:07.192Z,11.53
2018-12-31T10:29:56.050Z,12.17
2018-12-31T10:32:44.894Z,12.20
2018-12-31T10:35:26.520Z,11.77
2018-12-31T10:37:55.981Z,9.80
2018-12-31T10:40:44.827Z,10.47
2018-12-31T10:43:33.663Z,11.60
2018-12-31T10:46:22.517Z,11.30
2018-12-31T10:49:11.387Z,12.00
2018-12-31T10:52:00.245Z,11.27
2018-12-31T10:54:49.059Z,11.53
2018-12-31T10:57:37.949Z,12.13
2018-12-31T11:00:26.840Z,11.50
2018-12-31T11:03:08.932Z,10.80
2018-12-31T11:05:57.761Z,8.97
2018-12-31T11:08:46.702Z,10.23
2018-12-31T11:11:35.574Z,11.00
2018-12-31T11:14:24.440Z,11.37
2018-12-31T11:17:13.314Z,10.93
2018-12-31T11:20:09.618Z,10.23
2018-12-31T11:22:58.443Z,10.47
2018-12-31T11:25:47.288Z,11.73
2018-12-31T11:28:36.125Z,12.03
2018-12-31T11:31:30.247Z,11.73
2018-12-31T11:34:15.558Z,12.53
2018-12-31T11:37:04.481Z,11.87
2018-12-31T11:39:53.284Z,11.37
2018-12-31T11:42:42.145Z,11.17
2018-12-31T11:45:30.966Z,11.17
2018-12-31T11:48:19.847Z,10.30
2018-12-31T11:51:08.643Z,12.23
2018-12-31T11:53:38.145Z,11.00
2018-12-31T11:56:27.004Z,11.77
2018-12-31T11:59:15.923Z,11.07
2018-12-31T12:02:04.888Z,11.07
2018-12-31T12:04:53.816Z,10.63
2018-12-31T12:07:42.646Z,10.33
2018-12-31T12:10:31.566Z,9.57
2018-12-31T12:13:20.443Z,9.13
2018-12-31T12:16:09.324Z,9.80
2018-12-31T12:18:58.153Z,11.63
2018-12-31T12:21:47.016Z,9.90
2018-12-31T12:24:35.862Z,10.57
2018-12-31T12:27:25.068Z,10.00
2018-12-31T12:30:13.933Z,10.17
2018-12-31T12:33:02.942Z,10.23
2018-12-31T12:35:51.781Z,11.23
2018-12-31T12:38:33.495Z,10.00
2018-12-31T12:41:22.400Z,11.67
2018-12-31T12:44:11.222Z,12.00
2018-12-31T12:47:00.087Z,13.40
2018-12-31T12:49:49.005Z,11.67
2018-12-31T12:52:37.939Z,11.17
2018-12-31T12:55:26.759Z,10.13
2018-12-31T12:58:15.616Z,10.73
2018-12-31T13:01:04.575Z,11.20
2018-12-31T13:03:44.453Z,10.53
2018-12-31T13:06:33.449Z,12.93
2018-12-31T13:09:22.310Z,11.30
2018-12-31T13:12:11.147Z,10.67
2018-12-31T13:15:00.012Z,9.83
2018-12-31T13:17:48.905Z,9.33
2018-12-31T13:20:37.751Z,10.50
2018-12-31T13:23:26.690Z,10.33
2018-12-31T13:25:56.186Z,9.73
2018-12-31T13:28:45.015Z,12.47
2018-12-31T13:31:33.861Z,9.60
2018-12-31T13:34:22.738Z,10.37
2018-12-31T13:37:11.607Z,9.90
2018-12-31T13:40:00.508Z,9.93
2018-12-31T13:42:49.289Z,9.87
2018-12-31T13:45:38.214Z,8.57
2018-12-31T13:48:27.045Z,9.60
2018-12-31T13:51:08.961Z,8.83
2018-12-31T13:53:57.856Z,9.00
2018-12-31T13:56:46.707Z,9.13
2018-12-31T13:59:35.548Z,10.20
2018-12-31T14:02:24.405Z,10.30
2018-12-31T14:05:13.248Z,9.43
2018-12-31T14:08:02.158Z,8.83
2018-12-31T14:10:50.962Z,9.23
2018-12-31T14:13:39.916Z,9.53
2018-12-31T14:16:28.844Z,10.30
2018-12-31T14:19:17.689Z,10.37
2018-12-31T14:22:06.609Z,9.20
2018-12-31T14:24:36.107Z,8.77
2018-12-31T14:27:24.968Z,9.47
2018-12-31T14:30:13.938Z,9.07
2018-12-31T14:33:02.787Z,10.50
2018-12-31T14:35:51.742Z,9.10
2018-12-31T14:38:40.686Z,10.93
2018-12-31T14:41:29.630Z,9.77
2018-12-31T14:44:18.596Z,10.50
2018-12-31T14:47:07.465Z,9.07
2018-12-31T14:49:56.356Z,9.10
2018-12-31T14:52:25.877Z,9.97
2018-12-31T14:55:14.740Z,10.47
2018-12-31T14:58:03.671Z,10.67
2018-12-31T15:00:52.567Z,11.33
2018-12-31T15:03:22.108Z,10.60
2018-12-31T15:06:10.941Z,10.23
2018-12-31T15:08:59.822Z,10.27
2018-12-31T15:11:48.631Z,11.53
2018-12-31T15:14:37.493Z,11.33
2018-12-31T15:17:19.397Z,10.67
2018-12-31T15:20:29.137Z,12.20
2018-12-31T15:23:19.790Z,11.70
2018-12-31T15:26:08.683Z,12.40
2018-12-31T15:28:57.837Z,11.10
2018-12-31T15:31:46.695Z,11.40
2018-12-31T15:34:35.636Z,11.10
2018-12-31T15:37:05.187Z,10.60
2018-12-31T15:39:54.043Z,11.23
2018-12-31T15:42:42.849Z,10.60
2018-12-31T15:45:33.255Z,11.37
2018-12-31T15:48:02.963Z,10.67
2018-12-31T15:50:51.840Z,10.73
2018-12-31T15:53:40.746Z,9.73
2018-12-31T15:56:22.314Z,11.90
2018-12-31T15:59:11.136Z,9.87
2018-12-31T16:02:00.016Z,11.40
2018-12-31T16:04:48.871Z,10.83
2018-12-31T16:07:45.405Z,10.70
2018-12-31T16:10:28.274Z,10.30
2018-12-31T16:13:18.949Z,10.17
2018-12-31T16:16:07.816Z,11.40
2018-12-31T16:18:56.633Z,10.63
2018-12-31T16:21:45.484Z,8.77
2018-12-31T16:24:34.299Z,9.47
2018-12-31T16:27:16.022Z,11.33
2018-12-31T16:33:20.816Z,9.17
2018-12-31T16:36:09.700Z,9.07
2018-12-31T16:38:58.655Z,9.93
2018-12-31T16:41:47.545Z,11.37
2018-12-31T16:44:37.376Z,10.13
2018-12-31T16:47:07.611Z,8.13
2018-12-31T16:49:56.561Z,10.70
2018-12-31T16:52:45.386Z,10.93
2018-12-31T16:55:34.255Z,11.03
2018-12-31T16:58:23.187Z,8.80
2018-12-31T17:01:11.994Z,9.77
2018-12-31T17:04:00.929Z,8.20
2018-12-31T17:06:49.831Z,9.47
2018-12-31T17:09:38.710Z,9.30
2018-12-31T17:12:27.527Z,9.50
2018-12-31T17:14:58.739Z,9.50
2018-12-31T17:17:47.613Z,8.53
2018-12-31T17:20:36.442Z,8.60
2018-12-31T17:23:25.308Z,8.03
2018-12-31T17:26:14.167Z,9.30
2018-12-31T17:29:02.988Z,7.80
2018-12-31T17:31:51.960Z,8.13
2018-12-31T17:34:40.809Z,8.30
2018-12-31T17:37:29.712Z,8.53
2018-12-31T17:39:59.209Z,8.27
2018-12-31T17:42:48.143Z,9.03
2018-12-31T17:45:36.995Z,8.77
2018-12-31T17:48:25.894Z,8.17
2018-12-31T17:51:15.403Z,8.23
2018-12-31T17:54:05.438Z,8.23
2018-12-31T17:56:34.932Z,10.37
2018-12-31T17:59:23.951Z,7.20
2018-12-31T18:02:12.773Z,7.83
2018-12-31T18:05:03.419Z,7.77
2018-12-31T18:07:52.302Z,7.20
2018-12-31T18:10:41.428Z,8.03
2018-12-31T18:13:10.957Z,7.70
2018-12-31T18:15:59.856Z,8.03
2018-12-31T18:18:48.670Z,7.47
2018-12-31T18:21:37.504Z,9.27
2018-12-31T18:24:06.993Z,11.00
2018-12-31T18:26:49.108Z,13.07
2018-12-31T18:29:37.926Z,12.60
2018-12-31T18:32:26.752Z,13.73
2018-12-31T18:35:15.637Z,12.33
2018-12-31T18:38:04.566Z,14.07
2018-12-31T18:40:34.064Z,13.77
2018-12-31T18:43:22.898Z,12.97
2018-12-31T18:46:11.844Z,14.57
2018-12-31T18:49:00.742Z,13.20
2018-12-31T18:51:49.604Z,14.30
2018-12-31T18:54:31.675Z,15.07
2018-12-31T18:57:20.562Z,14.00
2018-12-31T19:00:09.525Z,14.10
2018-12-31T19:02:58.389Z,13.97
2018-12-31T19:05:40.531Z,15.60
2018-12-31T19:08:29.397Z,16.50
2018-12-31T19:10:58.880Z,14.30
2018-12-31T19:13:47.729Z,14.47
2018-12-31T19:16:36.637Z,14.90
2018-12-31T19:19:25.479Z,15.53
2018-12-31T19:22:14.385Z,15.80
2018-12-31T19:25:03.229Z,13.77
2018-12-31T19:27:52.084Z,14.07
2018-12-31T19:30:40.956Z,14.50
2018-12-31T19:33:29.766Z,24.50
2018-12-31T19:36:18.637Z,21.73
2018-12-31T19:39:07.591Z,16.70
2018-12-31T19:41:56.499Z,16.03
2018-12-31T19:44:45.380Z,18.30
2018-12-31T19:47:34.189Z,15.70
2018-12-31T19:50:23.065Z,14.13
2018-12-31T19:53:13.522Z,15.70
2018-12-31T19:56:02.538Z,17.27
2018-12-31T19:58:51.386Z,16.70
2018-12-31T20:01:40.311Z,16.73
2018-12-31T20:04:23.967Z,18.00
2018-12-31T20:07:01.065Z,17.83
2018-12-31T20:09:44.001Z,17.53
2018-12-31T20:12:32.879Z,16.17
2018-12-31T20:15:21.699Z,16.27
2018-12-31T20:18:10.573Z,16.30
2018-12-31T20:20:59.475Z,14.73
2018-12-31T20:23:48.376Z,17.00
2018-12-31T20:26:37.303Z,14.73
2018-12-31T20:29:26.154Z,14.83
2018-12-31T20:32:15.043Z,15.03
2018-12-31T20:35:03.988Z,18.13
2018-12-31T20:37:53.007Z,16.67
2018-12-31T20:40:41.857Z,15.63
2018-12-31T20:43:30.699Z,13.63
2018-12-31T20:46:19.673Z,14.30
2018-12-31T20:49:01.477Z,12.93
2018-12-31T20:51:50.400Z,14.33
2018-12-31T20:54:39.263Z,14.97
2018-12-31T20:57:28.086Z,13.73
2018-12-31T20:59:57.751Z,13.73
2018-12-31T21:02:46.670Z,13.27
2018-12-31T21:05:35.542Z,15.13
2018-12-31T21:08:24.562Z,10.77
2018-12-31T21:11:13.405Z,12.97
2018-12-31T21:14:02.240Z,13.67
2018-12-31T21:16:51.094Z,14.17
2018-12-31T21:19:39.899Z,12.37
2018-12-31T21:22:28.827Z,12.70
2018-12-31T21:25:17.682Z,12.50
2018-12-31T21:28:06.565Z,12.50
2018-12-31T21:30:48.755Z,11.23
2018-12-31T21:33:37.587Z,12.87
2018-12-31T21:36:26.426Z,12.97
2018-12-31T21:39:15.279Z,11.80
2018-12-31T21:42:04.191Z,12.83
2018-12-31T21:44:53.285Z,13.13
2018-12-31T21:47:42.176Z,13.70
2018-12-31T21:50:13.376Z,15.77
2018-12-31T21:53:02.223Z,12.97
2018-12-31T21:55:51.108Z,15.67
2018-12-31T21:58:40.006Z,15.83
2018-12-31T22:01:28.935Z,14.07
2018-12-31T22:04:11.087Z,13.57
2018-12-31T22:06:59.957Z,12.40
2018-12-31T22:09:48.859Z,14.10
2018-12-31T22:12:37.726Z,13.90
2018-12-31T22:15:28.344Z,14.07
2018-12-31T22:18:17.222Z,12.40
2018-12-31T22:21:07.778Z,16.37
2018-12-31T22:23:56.622Z,16.43
2018-12-31T22:26:47.166Z,14.90
2018-12-31T22:29:36.048Z,15.57
2018-12-31T22:32:26.574Z,16.47
2018-12-31T22:35:15.426Z,15.33
2018-12-31T22:38:04.563Z,14.97
2018-12-31T22:40:53.400Z,14.00
2018-12-31T22:43:42.246Z,12.07
2018-12-31T22:46:31.068Z,12.90
2018-12-31T22:49:19.933Z,13.03
2018-12-31T22:52:08.774Z,14.67
2018-12-31T22:54:57.738Z,13.43
2018-12-31T22:57:46.546Z,15.17
2018-12-31T23:00:29.206Z,17.80
2018-12-31T23:03:18.033Z,23.83
2018-12-31T23:06:06.985Z,43.10
2018-12-31T23:08:55.811Z,121.67
2018-12-31T23:11:44.690Z,157.77
2018-12-31T23:14:33.503Z,169.47
2018-12-31T23:17:22.380Z,163.53
2018-12-31T23:20:32.083Z,121.13
2018-12-31T23:23:21.244Z,112.67
2018-12-31T23:26:10.073Z,97.93
2018-12-31T23:29:00.796Z,93.23
2018-12-31T23:31:49.664Z,93.57
2018-12-31T23:34:40.219Z,93.77
2018-12-31T23:37:29.029Z,91.60
2018-12-31T23:40:19.615Z,75.30
2018-12-31T23:43:08.493Z,67.23
2018-12-31T23:45:59.069Z,61.77
2018-12-31T23:48:47.865Z,55.27
2018-12-31T23:51:38.446Z,49.13
2018-12-31T23:54:27.355Z,40.53
2018-12-31T23:57:17.889Z,36.23
